sensor_id;sensor_type;location;lat;lon;timestamp;pressure;altitude;pressure_sealevel;temperature;humidity
58775;BME280;44545;47.480;19.024;2023-02-10T03:44:29;102294.75;;;-6.41;100.00
58775;BME280;44545;47.480;19.024;2023-02-10T03:47:31;102298.19;;;-6.57;100.00
58775;BME280;44545;47.480;19.024;2023-02-10T03:50:34;102299.38;;;-6.61;100.00
58775;BME280;44545;47.480;19.024;2023-02-10T03:53:37;102296.84;;;-6.33;100.00
58775;BME280;44545;47.480;19.024;2023-02-10T03:56:39;102289.94;;;-6.22;100.00
58775;BME280;44545;47.480;19.024;2023-02-10T03:59:42;102289.47;;;-6.48;100.00
58775;BME280;44545;47.480;19.024;2023-02-10T04:02:44;102275.13;;;-6.30;99.81
58775;BME280;44545;47.480;19.024;2023-02-10T04:05:46;102285.72;;;-6.61;99.81
58775;BME280;44545;47.480;19.024;2023-02-10T04:08:49;102278.31;;;-6.82;100.00
58775;BME280;44545;47.480;19.024;2023-02-10T04:11:51;102271.16;;;-6.85;100.00
58775;BME280;44545;47.480;19.024;2023-02-10T04:14:54;102270.47;;;-6.84;100.00
58775;BME280;44545;47.480;19.024;2023-02-10T04:17:56;102264.22;;;-7.03;100.00
58775;BME280;44545;47.480;19.024;2023-02-10T04:20:59;102269.94;;;-7.09;100.00
58775;BME280;44545;47.480;19.024;2023-02-10T04:24:03;102270.37;;;-7.23;100.00
58775;BME280;44545;47.480;19.024;2023-02-10T04:27:06;102273.44;;;-6.92;100.00
58775;BME280;44545;47.480;19.024;2023-02-10T04:30:09;102268.62;;;-6.73;100.00
58775;BME280;44545;47.480;19.024;2023-02-10T04:33:11;102267.97;;;-6.67;100.00
58775;BME280;44545;47.480;19.024;2023-02-10T04:36:14;102273.28;;;-6.54;100.00
58775;BME280;44545;47.480;19.024;2023-02-10T04:39:16;102273.75;;;-6.51;100.00
58775;BME280;44545;47.480;19.024;2023-02-10T04:42:18;102291.28;;;-6.41;100.00
58775;BME280;44545;47.480;19.024;2023-02-10T04:45:22;102283.22;;;-6.39;100.00
58775;BME280;44545;47.480;19.024;2023-02-10T04:48:24;102280.91;;;-6.26;100.00
58775;BME280;44545;47.480;19.024;2023-02-10T04:51:27;102288.09;;;-6.18;100.00
58775;BME280;44545;47.480;19.024;2023-02-10T04:54:29;102292.22;;;-6.07;100.00
58775;BME280;44545;47.480;19.024;2023-02-10T04:57:31;102301.00;;;-6.05;100.00
58775;BME280;44545;47.480;19.024;2023-02-10T05:00:34;102308.59;;;-5.94;100.00
58775;BME280;44545;47.480;19.024;2023-02-10T05:03:36;102309.47;;;-5.88;99.99
58775;BME280;44545;47.480;19.024;2023-02-10T05:06:38;102310.16;;;-5.77;99.62
58775;BME280;44545;47.480;19.024;2023-02-10T05:09:41;102307.84;;;-5.76;99.63
58775;BME280;44545;47.480;19.024;2023-02-10T05:12:43;102306.91;;;-5.71;99.02
58775;BME280;44545;47.480;19.024;2023-02-10T05:15:46;102313.16;;;-5.85;99.38
58775;BME280;44545;47.480;19.024;2023-02-10T05:18:50;102325.47;;;-6.00;99.35
58775;BME280;44545;47.480;19.024;2023-02-10T05:21:52;102324.06;;;-5.98;100.00
58775;BME280;44545;47.480;19.024;2023-02-10T05:24:57;102317.63;;;-6.13;99.91
58775;BME280;44545;47.480;19.024;2023-02-10T05:27:59;102320.81;;;-6.36;100.00
58775;BME280;44545;47.480;19.024;2023-02-10T05:31:02;102332.81;;;-6.46;100.00
58775;BME280;44545;47.480;19.024;2023-02-10T05:34:10;102334.63;;;-6.57;100.00
58775;BME280;44545;47.480;19.024;2023-02-10T05:37:13;102341.53;;;-6.61;100.00
58775;BME280;44545;47.480;19.024;2023-02-10T05:40:15;102332.34;;;-6.61;100.00
58775;BME280;44545;47.480;19.024;2023-02-10T05:43:18;102333.25;;;-6.60;100.00
58775;BME280;44545;47.480;19.024;2023-02-10T05:46:20;102342.25;;;-6.62;100.00
58775;BME280;44545;47.480;19.024;2023-02-10T05:49:22;102345.75;;;-6.45;100.00
58775;BME280;44545;47.480;19.024;2023-02-10T05:52:24;102343.44;;;-6.32;100.00
58775;BME280;44545;47.480;19.024;2023-02-10T05:55:27;102341.59;;;-6.39;99.02
58775;BME280;44545;47.480;19.024;2023-02-10T05:58:29;102334.69;;;-6.45;98.94
58775;BME280;44545;47.480;19.024;2023-02-10T06:01:34;102330.47;;;-6.56;98.84
58775;BME280;44545;47.480;19.024;2023-02-10T06:04:37;102329.31;;;-6.75;99.97
58775;BME280;44545;47.480;19.024;2023-02-10T06:07:39;102331.19;;;-6.51;99.97
58775;BME280;44545;47.480;19.024;2023-02-10T06:10:41;102335.13;;;-6.48;99.75
58775;BME280;44545;47.480;19.024;2023-02-10T06:13:44;102337.22;;;-6.40;99.60
58775;BME280;44545;47.480;19.024;2023-02-10T06:16:46;102336.75;;;-6.37;98.91
58775;BME280;44545;47.480;19.024;2023-02-10T06:19:49;102328.91;;;-6.39;98.71
58775;BME280;44545;47.480;19.024;2023-02-10T06:22:52;102330.78;;;-6.15;98.42
58775;BME280;44545;47.480;19.024;2023-02-10T06:25:54;102336.09;;;-6.02;97.91
58775;BME280;44545;47.480;19.024;2023-02-10T06:28:57;102337.94;;;-6.01;97.33
58775;BME280;44545;47.480;19.024;2023-02-10T06:31:59;102339.94;;;-5.88;96.59
58775;BME280;44545;47.480;19.024;2023-02-10T06:35:01;102348.50;;;-5.76;97.40
58775;BME280;44545;47.480;19.024;2023-02-10T06:38:04;102341.50;;;-5.43;97.29
58775;BME280;44545;47.480;19.024;2023-02-10T06:41:06;102351.31;;;-5.05;95.30
58775;BME280;44545;47.480;19.024;2023-02-10T06:44:08;102361.16;;;-4.84;93.86
58775;BME280;44545;47.480;19.024;2023-02-10T06:47:11;102372.28;;;-4.78;93.15
58775;BME280;44545;47.480;19.024;2023-02-10T06:50:13;102379.16;;;-4.71;93.12
58775;BME280;44545;47.480;19.024;2023-02-10T06:53:16;102384.16;;;-4.54;93.09
58775;BME280;44545;47.480;19.024;2023-02-10T06:56:20;102384.56;;;-4.40;93.17
58775;BME280;44545;47.480;19.024;2023-02-10T06:59:22;102383.38;;;-4.37;92.81
58775;BME280;44545;47.480;19.024;2023-02-10T07:02:25;102378.56;;;-4.46;92.60
58775;BME280;44545;47.480;19.024;2023-02-10T07:05:27;102372.47;;;-4.30;91.98
58775;BME280;44545;47.480;19.024;2023-02-10T07:08:30;102369.19;;;-4.29;91.04
58775;BME280;44545;47.480;19.024;2023-02-10T07:11:33;102375.00;;;-4.36;90.65
58775;BME280;44545;47.480;19.024;2023-02-10T07:14:35;102376.16;;;-4.33;90.35
58775;BME280;44545;47.480;19.024;2023-02-10T07:17:38;102381.75;;;-4.36;90.37
58775;BME280;44545;47.480;19.024;2023-02-10T07:20:40;102384.47;;;-4.29;89.70
58775;BME280;44545;47.480;19.024;2023-02-10T07:23:43;102381.44;;;-4.26;89.79
58775;BME280;44545;47.480;19.024;2023-02-10T07:26:45;102391.97;;;-4.06;89.21
58775;BME280;44545;47.480;19.024;2023-02-10T07:29:48;102390.00;;;-3.90;86.99
58775;BME280;44545;47.480;19.024;2023-02-10T07:32:50;102387.13;;;-3.81;85.13
58775;BME280;44545;47.480;19.024;2023-02-10T07:35:53;102386.88;;;-3.77;84.13
58775;BME280;44545;47.480;19.024;2023-02-10T07:38:55;102383.59;;;-3.46;83.01
58775;BME280;44545;47.480;19.024;2023-02-10T07:41:58;102377.66;;;-3.34;81.11
58775;BME280;44545;47.480;19.024;2023-02-10T07:45:02;102367.56;;;-3.21;79.83
58775;BME280;44545;47.480;19.024;2023-02-10T07:48:05;102366.50;;;-3.10;78.62
58775;BME280;44545;47.480;19.024;2023-02-10T07:51:08;102359.69;;;-3.04;78.17
58775;BME280;44545;47.480;19.024;2023-02-10T07:54:10;102368.22;;;-3.16;79.25
58775;BME280;44545;47.480;19.024;2023-02-10T07:57:13;102374.31;;;-3.03;78.34
58775;BME280;44545;47.480;19.024;2023-02-10T08:00:15;102372.97;;;-2.88;78.12
58775;BME280;44545;47.480;19.024;2023-02-10T08:03:18;102370.62;;;-1.75;74.36
58775;BME280;44545;47.480;19.024;2023-02-10T08:06:21;102363.16;;;-0.89;69.82
58775;BME280;44545;47.480;19.024;2023-02-10T08:09:24;102370.19;;;-0.68;68.09
58775;BME280;44545;47.480;19.024;2023-02-10T08:12:26;102373.97;;;-0.72;67.01
58775;BME280;44545;47.480;19.024;2023-02-10T08:15:29;102376.38;;;0.07;65.57
58775;BME280;44545;47.480;19.024;2023-02-10T08:18:31;102371.34;;;0.75;63.07
58775;BME280;44545;47.480;19.024;2023-02-10T08:21:34;102377.44;;;0.83;62.19
58775;BME280;44545;47.480;19.024;2023-02-10T08:24:36;102381.06;;;0.43;62.31
58775;BME280;44545;47.480;19.024;2023-02-10T08:27:38;102388.50;;;0.08;64.29
58775;BME280;44545;47.480;19.024;2023-02-10T08:30:41;102387.03;;;0.10;64.77
58775;BME280;44545;47.480;19.024;2023-02-10T08:33:44;102384.94;;;0.47;63.52
58775;BME280;44545;47.480;19.024;2023-02-10T08:36:48;102381.44;;;0.74;62.54
58775;BME280;44545;47.480;19.024;2023-02-10T08:39:50;102378.47;;;0.71;62.87
58775;BME280;44545;47.480;19.024;2023-02-10T08:42:53;102387.00;;;0.84;61.87
58775;BME280;44545;47.480;19.024;2023-02-10T08:45:57;102375.22;;;1.20;61.35
58775;BME280;44545;47.480;19.024;2023-02-10T08:48:59;102375.06;;;1.33;61.06
58775;BME280;44545;47.480;19.024;2023-02-10T08:52:03;102369.91;;;1.26;60.44
58775;BME280;44545;47.480;19.024;2023-02-10T08:55:05;102374.47;;;1.21;61.28
58775;BME280;44545;47.480;19.024;2023-02-10T08:58:09;102378.94;;;1.37;61.12
58775;BME280;44545;47.480;19.024;2023-02-10T09:01:17;102375.19;;;1.98;59.32
58775;BME280;44545;47.480;19.024;2023-02-10T09:04:20;102376.47;;;2.01;58.32
58775;BME280;44545;47.480;19.024;2023-02-10T09:07:23;102375.19;;;1.83;59.81
58775;BME280;44545;47.480;19.024;2023-02-10T09:10:26;102367.44;;;1.76;59.68
58775;BME280;44545;47.480;19.024;2023-02-10T09:13:28;102371.53;;;2.03;59.07
58775;BME280;44545;47.480;19.024;2023-02-10T09:16:31;102367.81;;;2.22;58.59
58775;BME280;44545;47.480;19.024;2023-02-10T09:19:36;102361.59;;;2.13;58.96
58775;BME280;44545;47.480;19.024;2023-02-10T09:22:39;102353.47;;;2.46;57.74
58775;BME280;44545;47.480;19.024;2023-02-10T09:25:41;102353.03;;;2.71;57.60
58775;BME280;44545;47.480;19.024;2023-02-10T09:28:44;102354.19;;;3.94;53.64
58775;BME280;44545;47.480;19.024;2023-02-10T09:31:47;102366.03;;;5.26;49.44
58775;BME280;44545;47.480;19.024;2023-02-10T09:34:49;102348.63;;;6.06;45.17
58775;BME280;44545;47.480;19.024;2023-02-10T09:37:52;102352.91;;;6.14;46.15
58775;BME280;44545;47.480;19.024;2023-02-10T09:44:22;102356.28;;;6.13;42.88
58775;BME280;44545;47.480;19.024;2023-02-10T09:47:45;102347.06;;;5.75;43.41
58775;BME280;44545;47.480;19.024;2023-02-10T09:51:01;102348.53;;;5.39;43.62
58775;BME280;44545;47.480;19.024;2023-02-10T09:54:10;102359.91;;;5.57;43.86
58775;BME280;44545;47.480;19.024;2023-02-10T09:57:14;102362.31;;;6.05;41.82
58775;BME280;44545;47.480;19.024;2023-02-10T10:00:31;102362.84;;;5.45;42.71
58775;BME280;44545;47.480;19.024;2023-02-10T10:03:44;102360.72;;;5.65;43.18
58775;BME280;44545;47.480;19.024;2023-02-10T10:06:51;102356.56;;;5.92;42.43
58775;BME280;44545;47.480;19.024;2023-02-10T10:10:03;102349.75;;;5.43;43.60
58775;BME280;44545;47.480;19.024;2023-02-10T10:13:20;102344.28;;;5.49;43.83
58775;BME280;44545;47.480;19.024;2023-02-10T10:16:50;102336.81;;;5.43;43.41
58775;BME280;44545;47.480;19.024;2023-02-10T10:30:27;102346.69;;;6.71;40.22
58775;BME280;44545;47.480;19.024;2023-02-10T10:34:08;102347.84;;;6.58;40.21
58775;BME280;44545;47.480;19.024;2023-02-10T10:37:15;102336.94;;;9.03;35.23
58775;BME280;44545;47.480;19.024;2023-02-10T10:40:25;102326.47;;;9.99;33.50
58775;BME280;44545;47.480;19.024;2023-02-10T10:43:32;102326.66;;;8.02;36.44
58775;BME280;44545;47.480;19.024;2023-02-10T10:46:49;102329.59;;;6.82;38.58
58775;BME280;44545;47.480;19.024;2023-02-10T10:49:52;102328.47;;;6.37;40.35
58775;BME280;44545;47.480;19.024;2023-02-10T10:52:56;102320.00;;;7.25;38.25
58775;BME280;44545;47.480;19.024;2023-02-10T10:56:01;102304.22;;;8.03;36.78
58775;BME280;44545;47.480;19.024;2023-02-10T10:59:27;102303.41;;;8.40;36.14
58775;BME280;44545;47.480;19.024;2023-02-10T11:02:31;102306.41;;;8.54;36.46
58775;BME280;44545;47.480;19.024;2023-02-10T11:05:37;102285.69;;;9.31;35.22
58775;BME280;44545;47.480;19.024;2023-02-10T11:08:44;102279.16;;;11.49;30.51
58775;BME280;44545;47.480;19.024;2023-02-10T11:11:47;102247.47;;;15.56;25.54
58775;BME280;44545;47.480;19.024;2023-02-10T11:14:51;102234.31;;;18.95;21.03
58775;BME280;44545;47.480;19.024;2023-02-10T11:17:58;102250.94;;;17.76;20.87
58775;BME280;44545;47.480;19.024;2023-02-10T11:21:07;102236.66;;;19.07;19.86
58775;BME280;44545;47.480;19.024;2023-02-10T11:24:24;102233.13;;;22.13;17.11
58775;BME280;44545;47.480;19.024;2023-02-10T11:27:27;102240.47;;;23.80;15.18
58775;BME280;44545;47.480;19.024;2023-02-10T11:30:35;102247.69;;;23.27;15.12
58775;BME280;44545;47.480;19.024;2023-02-10T11:33:39;102250.56;;;23.33;15.01
58775;BME280;44545;47.480;19.024;2023-02-10T11:36:42;102249.41;;;23.25;14.95
58775;BME280;44545;47.480;19.024;2023-02-10T11:39:45;102242.53;;;24.20;14.22
58775;BME280;44545;47.480;19.024;2023-02-10T11:42:51;102244.06;;;24.12;14.09
58775;BME280;44545;47.480;19.024;2023-02-10T11:46:03;102231.91;;;23.90;14.19
58775;BME280;44545;47.480;19.024;2023-02-10T11:49:16;102229.25;;;23.06;14.49
58775;BME280;44545;47.480;19.024;2023-02-10T11:52:24;102223.25;;;24.97;13.27
58775;BME280;44545;47.480;19.024;2023-02-10T11:55:35;102218.31;;;24.44;13.29
58775;BME280;44545;47.480;19.024;2023-02-10T12:16:03;102196.28;;;18.75;17.66
58775;BME280;44545;47.480;19.024;2023-02-10T12:19:18;102179.31;;;18.53;17.70
58775;BME280;44545;47.480;19.024;2023-02-10T12:22:56;102190.75;;;15.88;20.28
58775;BME280;44545;47.480;19.024;2023-02-10T12:26:21;102197.88;;;10.92;26.51
58775;BME280;44545;47.480;19.024;2023-02-10T12:29:46;102200.13;;;8.01;31.63
58775;BME280;44545;47.480;19.024;2023-02-10T12:50:22;102193.53;;;5.00;39.52
58775;BME280;44545;47.480;19.024;2023-02-10T12:53:36;102196.00;;;5.08;39.18
58775;BME280;44545;47.480;19.024;2023-02-10T12:56:44;102188.16;;;5.15;39.95
58775;BME280;44545;47.480;19.024;2023-02-10T12:59:55;102188.72;;;4.88;39.95
58775;BME280;44545;47.480;19.024;2023-02-10T13:03:05;102190.06;;;4.60;40.55
58775;BME280;44545;47.480;19.024;2023-02-10T13:06:20;102191.50;;;4.73;40.58
58775;BME280;44545;47.480;19.024;2023-02-10T13:09:46;102195.38;;;5.02;40.79
58775;BME280;44545;47.480;19.024;2023-02-10T13:12:50;102204.25;;;4.88;40.91
58775;BME280;44545;47.480;19.024;2023-02-10T13:15:59;102214.00;;;4.90;41.15
58775;BME280;44545;47.480;19.024;2023-02-10T13:19:33;102204.88;;;4.69;41.77
58775;BME280;44545;47.480;19.024;2023-02-10T13:36:34;102188.84;;;4.24;42.66
58775;BME280;44545;47.480;19.024;2023-02-10T13:39:38;102193.75;;;4.30;43.23
58775;BME280;44545;47.480;19.024;2023-02-10T13:42:59;102193.16;;;4.48;42.18
58775;BME280;44545;47.480;19.024;2023-02-10T13:46:03;102185.41;;;4.48;42.68
58775;BME280;44545;47.480;19.024;2023-02-10T13:49:16;102187.81;;;4.47;42.84
58775;BME280;44545;47.480;19.024;2023-02-10T13:52:25;102192.00;;;4.22;43.21
58775;BME280;44545;47.480;19.024;2023-02-10T14:05:01;102173.91;;;4.38;43.80
58775;BME280;44545;47.480;19.024;2023-02-10T14:08:15;102181.84;;;4.39;43.45
58775;BME280;44545;47.480;19.024;2023-02-10T14:11:38;102185.78;;;4.60;43.36
58775;BME280;44545;47.480;19.024;2023-02-10T14:14:42;102189.19;;;4.68;43.15
58775;BME280;44545;47.480;19.024;2023-02-10T14:18:28;102187.28;;;4.58;43.26
58775;BME280;44545;47.480;19.024;2023-02-10T14:21:42;102191.31;;;4.47;43.95
58775;BME280;44545;47.480;19.024;2023-02-10T14:24:46;102191.06;;;4.37;44.21
58775;BME280;44545;47.480;19.024;2023-02-10T14:27:52;102197.75;;;4.35;44.49
58775;BME280;44545;47.480;19.024;2023-02-10T14:31:01;102183.44;;;4.46;44.27
58775;BME280;44545;47.480;19.024;2023-02-10T14:34:26;102191.06;;;4.37;44.27
58775;BME280;44545;47.480;19.024;2023-02-10T14:37:29;102196.94;;;4.43;44.57
58775;BME280;44545;47.480;19.024;2023-02-10T14:40:31;102192.09;;;4.46;44.26
58775;BME280;44545;47.480;19.024;2023-02-10T14:43:36;102182.00;;;4.41;44.42
58775;BME280;44545;47.480;19.024;2023-02-10T14:46:39;102182.19;;;4.10;44.83
58775;BME280;44545;47.480;19.024;2023-02-10T14:49:42;102183.44;;;3.98;45.54
58775;BME280;44545;47.480;19.024;2023-02-10T14:52:48;102185.69;;;3.95;45.94
58775;BME280;44545;47.480;19.024;2023-02-10T14:55:56;102191.00;;;3.97;46.07
58775;BME280;44545;47.480;19.024;2023-02-10T14:58:58;102196.84;;;3.64;46.75
58775;BME280;44545;47.480;19.024;2023-02-10T15:02:10;102190.22;;;3.43;47.54
58775;BME280;44545;47.480;19.024;2023-02-10T15:05:19;102190.19;;;3.27;47.94
58775;BME280;44545;47.480;19.024;2023-02-10T15:12:00;102191.06;;;3.12;48.41
58775;BME280;44545;47.480;19.024;2023-02-10T15:15:33;102187.19;;;3.08;48.65
58775;BME280;44545;47.480;19.024;2023-02-10T15:18:40;102199.22;;;3.00;49.52
58775;BME280;44545;47.480;19.024;2023-02-10T15:21:45;102195.94;;;2.94;49.95
58775;BME280;44545;47.480;19.024;2023-02-10T15:24:48;102197.66;;;2.87;50.00
58775;BME280;44545;47.480;19.024;2023-02-10T15:27:51;102196.94;;;2.80;50.96
58775;BME280;44545;47.480;19.024;2023-02-10T15:31:06;102208.78;;;2.71;51.51
58775;BME280;44545;47.480;19.024;2023-02-10T15:37:26;102203.75;;;2.43;52.72
58775;BME280;44545;47.480;19.024;2023-02-10T15:40:34;102204.88;;;2.37;52.96
58775;BME280;44545;47.480;19.024;2023-02-10T15:43:36;102199.63;;;2.14;53.34
58775;BME280;44545;47.480;19.024;2023-02-10T15:46:41;102196.37;;;2.01;53.29
58775;BME280;44545;47.480;19.024;2023-02-10T15:49:45;102200.28;;;1.83;53.65
58775;BME280;44545;47.480;19.024;2023-02-10T15:52:48;102208.34;;;1.79;54.17
58775;BME280;44545;47.480;19.024;2023-02-10T15:55:50;102213.50;;;1.72;54.64
58775;BME280;44545;47.480;19.024;2023-02-10T15:58:53;102207.09;;;1.54;55.79
58775;BME280;44545;47.480;19.024;2023-02-10T16:02:00;102211.31;;;1.39;56.80
58775;BME280;44545;47.480;19.024;2023-02-10T16:05:03;102213.72;;;1.45;56.57
58775;BME280;44545;47.480;19.024;2023-02-10T16:08:11;102220.88;;;1.26;57.38
58775;BME280;44545;47.480;19.024;2023-02-10T16:11:16;102221.06;;;1.20;57.75
58775;BME280;44545;47.480;19.024;2023-02-10T16:14:19;102238.12;;;1.20;57.76
58775;BME280;44545;47.480;19.024;2023-02-10T16:17:27;102233.72;;;1.26;57.70
58775;BME280;44545;47.480;19.024;2023-02-10T16:20:31;102231.84;;;1.11;58.53
58775;BME280;44545;47.480;19.024;2023-02-10T16:23:33;102228.00;;;1.00;58.77
